Terminal Aerodrome Forecast
Issued by NWS

Home | Current Version | Previous Version | Text Only | Print | Product List | Glossary Off
Versions: 1 2 3 4 5 6 7 8 9 10 11 12 13 14 15 16 17 18 19 20 21 22 23

547
FTUS41 KCLE 260858 AAA
TAFFDY
TAF AMD
KFDY 260858Z 2609/2706 23011KT P6SM SCT045 OVC080
     FM261500 31011KT P6SM OVC015
     FM262200 04015KT P6SM OVC020=

USA.gov is the U.S. government's official web portal to all federal, state and local government web resources and services.